Archival Weather

Sydney Intl

Sydney, Australia (YSSY)

Report from: Sunday, March 19, 2023 7:30 PM AEDT
Current time: Tuesday, February 27, 2024 10:22 PM AEDT

Current weather – Weather history – Daily summaries
Weather forecast

Present weatherDrizzle, fog
Temperature23.0°C (73.4°F)
Dew point22.0°C (71.6°F)
Winds 13 kts (6.7 m/s, 15 mph) South-Southeast (160°)
Visibility1968.5 ft. (600 m)
Clouds Ceiling: Broken clouds 100 ft. (30 m)
Altimeter30.00 in.Hg (1016 mB)
Relative humidity94 %
Density altitude1,193 ft. (364 m)
Remarks Fully automated report
Flight conditions Low Instrument Meteorological Conditions
Raw dataYSSY 190830Z AUTO 16013KT 0600 R16L/1200V1700N DZ FG BKN001 23/22 Q1016
An error has occurred. This application may no longer respond until reloaded. Reload 🗙